Terminal Aerodrome Forecast
Issued by NWS

Home | Current Version | Previous Version | Text Only | Print | Product List | Glossary On
Versions: 1 2 3 4 5 6 7 8 9 10 11 12 13
000
FTUS44 KEPZ 010528
TAFDMN
TAF
KDMN 010528Z 0106/0206 31005KT P6SM FEW090 SCT250
     FM011500 26008KT P6SM SCT250
     FM020000 29007KT P6SM VCTS SCT090CB BKN250=

USA.gov is the U.S. government's official web portal to all federal, state and local government web resources and services.